sensor_id;sensor_type;location;lat;lon;timestamp;pressure;altitude;pressure_sealevel;temperature;humidity
18436;BME280;9346;52.006;4.720;2023-12-20T00:00:45;101517.72;;;8.31;100.00
18436;BME280;9346;52.006;4.720;2023-12-20T00:03:13;101521.88;;;8.33;100.00
18436;BME280;9346;52.006;4.720;2023-12-20T00:05:40;101522.97;;;8.32;100.00
18436;BME280;9346;52.006;4.720;2023-12-20T00:08:06;101523.19;;;8.31;100.00
18436;BME280;9346;52.006;4.720;2023-12-20T00:10:33;101518.06;;;8.34;100.00
18436;BME280;9346;52.006;4.720;2023-12-20T00:13:02;101518.88;;;8.35;100.00
18436;BME280;9346;52.006;4.720;2023-12-20T00:15:29;101518.31;;;8.33;100.00
18436;BME280;9346;52.006;4.720;2023-12-20T00:17:56;101521.88;;;8.33;100.00
18436;BME280;9346;52.006;4.720;2023-12-20T00:20:23;101530.72;;;8.35;100.00
18436;BME280;9346;52.006;4.720;2023-12-20T00:22:50;101530.09;;;8.33;100.00
18436;BME280;9346;52.006;4.720;2023-12-20T00:25:17;101513.41;;;8.35;100.00
18436;BME280;9346;52.006;4.720;2023-12-20T00:27:43;101512.31;;;8.36;100.00
18436;BME280;9346;52.006;4.720;2023-12-20T00:30:13;101519.50;;;8.37;100.00
18436;BME280;9346;52.006;4.720;2023-12-20T00:32:39;101523.88;;;8.38;100.00
18436;BME280;9346;52.006;4.720;2023-12-20T00:35:11;101523.41;;;8.41;100.00
18436;BME280;9346;52.006;4.720;2023-12-20T00:37:38;101512.66;;;8.39;100.00
18436;BME280;9346;52.006;4.720;2023-12-20T00:40:05;101510.66;;;8.35;100.00
18436;BME280;9346;52.006;4.720;2023-12-20T00:42:33;101511.25;;;8.37;100.00
18436;BME280;9346;52.006;4.720;2023-12-20T00:45:00;101519.25;;;8.38;100.00
18436;BME280;9346;52.006;4.720;2023-12-20T00:47:29;101520.06;;;8.39;100.00
18436;BME280;9346;52.006;4.720;2023-12-20T00:49:56;101520.06;;;8.39;100.00
18436;BME280;9346;52.006;4.720;2023-12-20T00:52:23;101524.75;;;8.38;100.00
18436;BME280;9346;52.006;4.720;2023-12-20T00:54:50;101514.81;;;8.37;100.00
18436;BME280;9346;52.006;4.720;2023-12-20T00:57:17;101516.25;;;8.40;100.00
18436;BME280;9346;52.006;4.720;2023-12-20T00:59:44;101518.66;;;8.36;100.00
18436;BME280;9346;52.006;4.720;2023-12-20T01:02:10;101512.06;;;8.37;100.00
18436;BME280;9346;52.006;4.720;2023-12-20T01:04:39;101512.44;;;8.41;100.00
18436;BME280;9346;52.006;4.720;2023-12-20T01:07:05;101512.44;;;8.41;100.00
18436;BME280;9346;52.006;4.720;2023-12-20T01:09:32;101509.91;;;8.39;100.00
18436;BME280;9346;52.006;4.720;2023-12-20T01:11:59;101517.91;;;8.41;100.00
18436;BME280;9346;52.006;4.720;2023-12-20T01:14:26;101518.75;;;8.41;100.00
18436;BME280;9346;52.006;4.720;2023-12-20T01:16:52;101516.25;;;8.40;100.00
18436;BME280;9346;52.006;4.720;2023-12-20T01:19:19;101520.91;;;8.39;100.00
18436;BME280;9346;52.006;4.720;2023-12-20T01:21:48;101525.31;;;8.40;100.00
18436;BME280;9346;52.006;4.720;2023-12-20T01:24:15;101514.56;;;8.39;100.00
18436;BME280;9346;52.006;4.720;2023-12-20T01:26:42;101513.50;;;8.40;100.00
18436;BME280;9346;52.006;4.720;2023-12-20T01:29:08;101516.00;;;8.41;100.00
18436;BME280;9346;52.006;4.720;2023-12-20T01:31:35;101523.66;;;8.39;100.00
18436;BME280;9346;52.006;4.720;2023-12-20T01:34:02;101513.28;;;8.41;100.00
18436;BME280;9346;52.006;4.720;2023-12-20T01:36:28;101521.25;;;8.43;100.00
18436;BME280;9346;52.006;4.720;2023-12-20T01:38:57;101511.34;;;8.42;100.00
18436;BME280;9346;52.006;4.720;2023-12-20T01:41:24;101499.88;;;8.45;100.00
18436;BME280;9346;52.006;4.720;2023-12-20T01:43:51;101508.94;;;8.45;100.00
18436;BME280;9346;52.006;4.720;2023-12-20T01:46:19;101505.13;;;8.46;100.00
18436;BME280;9346;52.006;4.720;2023-12-20T01:48:46;101511.69;;;8.45;100.00
18436;BME280;9346;52.006;4.720;2023-12-20T01:51:14;101510.13;;;8.49;100.00
18436;BME280;9346;52.006;4.720;2023-12-20T01:53:41;101506.56;;;8.49;100.00
18436;BME280;9346;52.006;4.720;2023-12-20T01:56:10;101501.66;;;8.51;100.00
18436;BME280;9346;52.006;4.720;2023-12-20T01:58:39;101501.41;;;8.52;100.00
18436;BME280;9346;52.006;4.720;2023-12-20T02:01:11;101505.22;;;8.51;100.00
18436;BME280;9346;52.006;4.720;2023-12-20T02:03:39;101506.66;;;8.54;100.00
18436;BME280;9346;52.006;4.720;2023-12-20T02:06:07;101510.00;;;8.56;100.00
18436;BME280;9346;52.006;4.720;2023-12-20T02:08:35;101505.91;;;8.58;100.00
18436;BME280;9346;52.006;4.720;2023-12-20T02:11:02;101510.31;;;8.59;100.00
18436;BME280;9346;52.006;4.720;2023-12-20T02:13:30;101511.16;;;8.60;100.00
18436;BME280;9346;52.006;4.720;2023-12-20T02:15:57;101507.81;;;8.58;100.00
18436;BME280;9346;52.006;4.720;2023-12-20T02:18:24;101515.31;;;8.62;100.00
18436;BME280;9346;52.006;4.720;2023-12-20T02:20:51;101519.16;;;8.61;100.00
18436;BME280;9346;52.006;4.720;2023-12-20T02:23:19;101509.84;;;8.62;100.00
18436;BME280;9346;52.006;4.720;2023-12-20T02:25:46;101512.34;;;8.64;100.00
18436;BME280;9346;52.006;4.720;2023-12-20T02:28:13;101500.28;;;8.65;100.00
18436;BME280;9346;52.006;4.720;2023-12-20T02:30:41;101492.88;;;8.65;100.00
18436;BME280;9346;52.006;4.720;2023-12-20T02:33:08;101495.13;;;8.68;100.00
18436;BME280;9346;52.006;4.720;2023-12-20T02:35:37;101484.97;;;8.69;100.00
18436;BME280;9346;52.006;4.720;2023-12-20T02:38:03;101486.38;;;8.71;100.00
18436;BME280;9346;52.006;4.720;2023-12-20T02:40:33;101482.31;;;8.74;100.00
18436;BME280;9346;52.006;4.720;2023-12-20T02:42:59;101482.56;;;8.72;100.00
18436;BME280;9346;52.006;4.720;2023-12-20T02:45:26;101480.41;;;8.74;100.00
18436;BME280;9346;52.006;4.720;2023-12-20T02:47:53;101478.50;;;8.75;100.00
18436;BME280;9346;52.006;4.720;2023-12-20T02:50:20;101472.41;;;8.73;100.00
18436;BME280;9346;52.006;4.720;2023-12-20T02:52:47;101474.31;;;8.72;100.00
18436;BME280;9346;52.006;4.720;2023-12-20T02:55:13;101476.50;;;8.70;100.00
18436;BME280;9346;52.006;4.720;2023-12-20T02:57:42;101474.56;;;8.71;100.00
18436;BME280;9346;52.006;4.720;2023-12-20T03:00:09;101468.75;;;8.67;100.00
18436;BME280;9346;52.006;4.720;2023-12-20T03:02:37;101466.31;;;8.71;100.00
18436;BME280;9346;52.006;4.720;2023-12-20T03:05:04;101468.25;;;8.70;100.00
18436;BME280;9346;52.006;4.720;2023-12-20T03:07:31;101468.25;;;8.70;100.00
18436;BME280;9346;52.006;4.720;2023-12-20T03:09:57;101464.41;;;8.71;100.00
18436;BME280;9346;52.006;4.720;2023-12-20T03:12:24;101468.00;;;8.72;100.00
18436;BME280;9346;52.006;4.720;2023-12-20T03:14:52;101454.03;;;8.73;100.00
18436;BME280;9346;52.006;4.720;2023-12-20T03:17:19;101448.28;;;8.75;100.00
18436;BME280;9346;52.006;4.720;2023-12-20T03:19:46;101452.44;;;8.77;100.00
18436;BME280;9346;52.006;4.720;2023-12-20T03:22:13;101448.59;;;8.78;100.00
18436;BME280;9346;52.006;4.720;2023-12-20T03:24:39;101443.72;;;8.80;100.00
18436;BME280;9346;52.006;4.720;2023-12-20T03:27:06;101441.22;;;8.79;100.00
18436;BME280;9346;52.006;4.720;2023-12-20T03:29:33;101454.34;;;8.77;100.00
18436;BME280;9346;52.006;4.720;2023-12-20T03:32:02;101451.34;;;8.78;100.00
18436;BME280;9346;52.006;4.720;2023-12-20T03:34:29;101455.19;;;8.77;100.00
18436;BME280;9346;52.006;4.720;2023-12-20T03:36:56;101453.53;;;8.76;100.00
18436;BME280;9346;52.006;4.720;2023-12-20T03:39:23;101446.97;;;8.77;100.00
18436;BME280;9346;52.006;4.720;2023-12-20T03:41:50;101457.94;;;8.77;100.00
18436;BME280;9346;52.006;4.720;2023-12-20T03:44:16;101453.28;;;8.78;100.00
18436;BME280;9346;52.006;4.720;2023-12-20T03:46:43;101448.59;;;8.78;100.00
18436;BME280;9346;52.006;4.720;2023-12-20T03:49:12;101449.94;;;8.76;100.00
18436;BME280;9346;52.006;4.720;2023-12-20T03:51:39;101448.28;;;8.75;100.00
18436;BME280;9346;52.006;4.720;2023-12-20T03:54:07;101448.28;;;8.75;100.00
18436;BME280;9346;52.006;4.720;2023-12-20T03:56:34;101443.59;;;8.75;100.00
18436;BME280;9346;52.006;4.720;2023-12-20T03:59:00;101446.59;;;8.74;100.00
18436;BME280;9346;52.006;4.720;2023-12-20T04:01:27;101445.78;;;8.73;100.00
18436;BME280;9346;52.006;4.720;2023-12-20T04:03:54;101448.53;;;8.73;100.00
18436;BME280;9346;52.006;4.720;2023-12-20T04:06:22;101453.44;;;8.71;100.00
18436;BME280;9346;52.006;4.720;2023-12-20T04:08:48;101458.94;;;8.71;100.00
18436;BME280;9346;52.006;4.720;2023-12-20T04:11:15;101454.53;;;8.70;100.00
18436;BME280;9346;52.006;4.720;2023-12-20T04:13:42;101463.31;;;8.72;100.00
18436;BME280;9346;52.006;4.720;2023-12-20T04:16:09;101459.78;;;8.72;100.00
18436;BME280;9346;52.006;4.720;2023-12-20T04:18:35;101466.69;;;8.74;100.00
18436;BME280;9346;52.006;4.720;2023-12-20T04:21:02;101447.69;;;8.73;100.00
18436;BME280;9346;52.006;4.720;2023-12-20T04:23:32;101441.13;;;8.74;100.00
18436;BME280;9346;52.006;4.720;2023-12-20T04:25:58;101451.59;;;8.77;100.00
18436;BME280;9346;52.006;4.720;2023-12-20T04:28:25;101450.31;;;8.79;100.00
18436;BME280;9346;52.006;4.720;2023-12-20T04:30:52;101449.47;;;8.79;100.00
18436;BME280;9346;52.006;4.720;2023-12-20T04:33:18;101456.59;;;8.80;100.00
18436;BME280;9346;52.006;4.720;2023-12-20T04:35:45;101446.47;;;8.80;100.00
18436;BME280;9346;52.006;4.720;2023-12-20T04:38:12;101437.88;;;8.77;100.00
18436;BME280;9346;52.006;4.720;2023-12-20T04:40:41;101445.31;;;8.76;100.00
18436;BME280;9346;52.006;4.720;2023-12-20T04:43:07;101435.13;;;8.77;100.00
18436;BME280;9346;52.006;4.720;2023-12-20T04:45:36;101437.06;;;8.76;100.00
18436;BME280;9346;52.006;4.720;2023-12-20T04:48:03;101437.63;;;8.78;100.00
18436;BME280;9346;52.006;4.720;2023-12-20T04:50:30;101438.13;;;8.75;100.00
18436;BME280;9346;52.006;4.720;2023-12-20T04:52:58;101437.78;;;8.72;100.00
18436;BME280;9346;52.006;4.720;2023-12-20T04:55:25;101432.56;;;8.70;100.00
18436;BME280;9346;52.006;4.720;2023-12-20T04:57:54;101425.13;;;8.71;100.00
18436;BME280;9346;52.006;4.720;2023-12-20T05:00:22;101427.56;;;8.67;100.00
18436;BME280;9346;52.006;4.720;2023-12-20T05:02:48;101428.59;;;8.66;100.00
18436;BME280;9346;52.006;4.720;2023-12-20T05:05:15;101425.31;;;8.64;100.00
18436;BME280;9346;52.006;4.720;2023-12-20T05:07:43;101434.94;;;8.67;100.00
18436;BME280;9346;52.006;4.720;2023-12-20T05:10:10;101434.22;;;8.71;100.00
18436;BME280;9346;52.006;4.720;2023-12-20T05:12:37;101435.53;;;8.69;100.00
18436;BME280;9346;52.006;4.720;2023-12-20T05:15:07;101431.97;;;8.68;100.00
18436;BME280;9346;52.006;4.720;2023-12-20T05:17:34;101440.78;;;8.70;100.00
18436;BME280;9346;52.006;4.720;2023-12-20T05:20:03;101438.84;;;8.71;100.00
18436;BME280;9346;52.006;4.720;2023-12-20T05:22:30;101450.94;;;8.70;100.00
18436;BME280;9346;52.006;4.720;2023-12-20T05:24:57;101445.94;;;8.67;100.00
18436;BME280;9346;52.006;4.720;2023-12-20T05:27:24;101442.88;;;8.63;100.00
18436;BME280;9346;52.006;4.720;2023-12-20T05:29:50;101440.69;;;8.65;100.00
18436;BME280;9346;52.006;4.720;2023-12-20T05:32:19;101447.09;;;8.71;100.00
18436;BME280;9346;52.006;4.720;2023-12-20T05:34:45;101453.19;;;8.73;100.00
18436;BME280;9346;52.006;4.720;2023-12-20T05:37:12;101440.28;;;8.73;100.00
18436;BME280;9346;52.006;4.720;2023-12-20T05:39:39;101447.44;;;8.74;100.00
18436;BME280;9346;52.006;4.720;2023-12-20T05:42:06;101452.09;;;8.74;100.00
18436;BME280;9346;52.006;4.720;2023-12-20T05:44:33;101438.13;;;8.75;100.00
18436;BME280;9346;52.006;4.720;2023-12-20T05:46:59;101439.44;;;8.73;100.00
18436;BME280;9346;52.006;4.720;2023-12-20T05:49:28;101432.31;;;8.72;100.00
18436;BME280;9346;52.006;4.720;2023-12-20T05:51:55;101433.22;;;8.77;100.00
18436;BME280;9346;52.006;4.720;2023-12-20T05:54:21;101429.38;;;8.78;100.00
18436;BME280;9346;52.006;4.720;2023-12-20T05:56:48;101423.66;;;8.80;100.00
18436;BME280;9346;52.006;4.720;2023-12-20T05:59:16;101428.88;;;8.81;100.00
18436;BME280;9346;52.006;4.720;2023-12-20T06:01:43;101434.31;;;8.76;100.00
18436;BME280;9346;52.006;4.720;2023-12-20T06:04:09;101440.88;;;8.75;100.00
18436;BME280;9346;52.006;4.720;2023-12-20T06:06:41;101442.88;;;8.80;100.00
18436;BME280;9346;52.006;4.720;2023-12-20T06:09:08;101440.13;;;8.80;100.00
18436;BME280;9346;52.006;4.720;2023-12-20T06:11:35;101441.22;;;8.79;100.00
18436;BME280;9346;52.006;4.720;2023-12-20T06:14:02;101438.47;;;8.79;100.00
18436;BME280;9346;52.006;4.720;2023-12-20T06:16:28;101441.78;;;8.81;100.00
18436;BME280;9346;52.006;4.720;2023-12-20T06:18:55;101444.38;;;8.87;100.00
18436;BME280;9346;52.006;4.720;2023-12-20T06:21:21;101438.53;;;8.84;100.00
18436;BME280;9346;52.006;4.720;2023-12-20T06:23:50;101443.78;;;8.85;100.00
18436;BME280;9346;52.006;4.720;2023-12-20T06:26:17;101434.25;;;8.88;100.00
18436;BME280;9346;52.006;4.720;2023-12-20T06:28:44;101430.66;;;8.87;100.00
18436;BME280;9346;52.006;4.720;2023-12-20T06:31:11;101432.31;;;8.88;100.00
18436;BME280;9346;52.006;4.720;2023-12-20T06:33:38;101424.66;;;8.90;100.00
18436;BME280;9346;52.006;4.720;2023-12-20T06:36:06;101427.41;;;8.90;100.00
18436;BME280;9346;52.006;4.720;2023-12-20T06:38:33;101434.56;;;8.91;100.00
18436;BME280;9346;52.006;4.720;2023-12-20T06:41:02;101428.00;;;8.92;100.00
18436;BME280;9346;52.006;4.720;2023-12-20T06:43:29;101432.47;;;8.98;100.00
18436;BME280;9346;52.006;4.720;2023-12-20T06:45:56;101431.91;;;8.96;100.00
18436;BME280;9346;52.006;4.720;2023-12-20T06:48:23;101426.16;;;8.98;100.00
18436;BME280;9346;52.006;4.720;2023-12-20T06:50:50;101425.66;;;9.01;100.00
18436;BME280;9346;52.006;4.720;2023-12-20T06:53:16;101416.91;;;9.04;100.00
18436;BME280;9346;52.006;4.720;2023-12-20T06:55:43;101425.66;;;9.01;100.00
18436;BME280;9346;52.006;4.720;2023-12-20T06:58:11;101419.91;;;9.02;100.00
18436;BME280;9346;52.006;4.720;2023-12-20T07:00:39;101420.72;;;9.03;100.00
18436;BME280;9346;52.006;4.720;2023-12-20T07:03:06;101416.66;;;9.05;100.00
18436;BME280;9346;52.006;4.720;2023-12-20T07:05:32;101415.59;;;9.06;100.00
18436;BME280;9346;52.006;4.720;2023-12-20T07:07:59;101411.50;;;9.09;100.00
18436;BME280;9346;52.006;4.720;2023-12-20T07:10:26;101413.75;;;9.12;100.00
18436;BME280;9346;52.006;4.720;2023-12-20T07:12:52;101398.59;;;9.09;100.00
18436;BME280;9346;52.006;4.720;2023-12-20T07:15:22;101403.00;;;9.10;100.00
18436;BME280;9346;52.006;4.720;2023-12-20T07:17:48;101397.50;;;9.10;100.00
18436;BME280;9346;52.006;4.720;2023-12-20T07:20:15;101402.16;;;9.10;100.00
18436;BME280;9346;52.006;4.720;2023-12-20T07:22:42;101393.59;;;9.06;100.00
18436;BME280;9346;52.006;4.720;2023-12-20T07:25:09;101387.00;;;9.07;100.00
18436;BME280;9346;52.006;4.720;2023-12-20T07:27:35;101384.50;;;9.06;100.00
18436;BME280;9346;52.006;4.720;2023-12-20T07:30:03;101384.75;;;9.04;100.00
18436;BME280;9346;52.006;4.720;2023-12-20T07:32:32;101384.19;;;9.02;100.00
18436;BME280;9346;52.006;4.720;2023-12-20T07:34:59;101388.59;;;9.03;100.00
18436;BME280;9346;52.006;4.720;2023-12-20T07:37:26;101403.19;;;9.04;100.00
18436;BME280;9346;52.006;4.720;2023-12-20T07:39:52;101406.19;;;9.02;100.00
18436;BME280;9346;52.006;4.720;2023-12-20T07:42:19;101404.00;;;9.04;100.00
18436;BME280;9346;52.006;4.720;2023-12-20T07:44:47;101407.00;;;9.03;100.00
18436;BME280;9346;52.006;4.720;2023-12-20T07:47:14;101418.22;;;9.01;100.00
18436;BME280;9346;52.006;4.720;2023-12-20T07:49:44;101417.41;;;9.01;100.00
18436;BME280;9346;52.006;4.720;2023-12-20T07:52:10;101411.69;;;9.02;100.00
18436;BME280;9346;52.006;4.720;2023-12-20T07:54:39;101419.31;;;9.00;100.00
18436;BME280;9346;52.006;4.720;2023-12-20T07:57:06;101421.22;;;9.00;100.00
18436;BME280;9346;52.006;4.720;2023-12-20T07:59:33;101429.22;;;9.01;100.00
18436;BME280;9346;52.006;4.720;2023-12-20T08:02:00;101431.97;;;9.01;100.00
18436;BME280;9346;52.006;4.720;2023-12-20T08:04:27;101429.81;;;9.03;100.00
18436;BME280;9346;52.006;4.720;2023-12-20T08:06:55;101432.31;;;9.05;100.00
18436;BME280;9346;52.006;4.720;2023-12-20T08:09:24;101447.72;;;9.06;100.00
18436;BME280;9346;52.006;4.720;2023-12-20T08:11:54;101442.81;;;9.08;100.00
18436;BME280;9346;52.006;4.720;2023-12-20T08:14:21;101440.91;;;9.08;100.00
18436;BME280;9346;52.006;4.720;2023-12-20T08:16:48;101441.47;;;9.10;100.00
18436;BME280;9346;52.006;4.720;2023-12-20T08:19:16;101446.47;;;9.13;100.00
18436;BME280;9346;52.006;4.720;2023-12-20T08:21:43;101435.31;;;9.20;100.00
18436;BME280;9346;52.006;4.720;2023-12-20T08:24:12;101431.13;;;9.18;100.00
18436;BME280;9346;52.006;4.720;2023-12-20T08:26:38;101435.56;;;9.19;100.00
18436;BME280;9346;52.006;4.720;2023-12-20T08:29:06;101424.06;;;9.22;100.00
18436;BME280;9346;52.006;4.720;2023-12-20T08:31:32;101418.63;;;9.27;100.00
18436;BME280;9346;52.006;4.720;2023-12-20T08:33:59;101409.81;;;9.25;100.00
18436;BME280;9346;52.006;4.720;2023-12-20T08:36:26;101410.13;;;9.28;100.00
18436;BME280;9346;52.006;4.720;2023-12-20T08:38:53;101409.06;;;9.29;100.00
18436;BME280;9346;52.006;4.720;2023-12-20T08:41:23;101425.28;;;9.31;100.00
18436;BME280;9346;52.006;4.720;2023-12-20T08:43:49;101428.03;;;9.31;100.00
18436;BME280;9346;52.006;4.720;2023-12-20T08:46:16;101430.53;;;9.32;100.00
18436;BME280;9346;52.006;4.720;2023-12-20T08:48:43;101428.13;;;9.36;100.00
18436;BME280;9346;52.006;4.720;2023-12-20T08:51:13;101439.72;;;9.38;100.00
18436;BME280;9346;52.006;4.720;2023-12-20T08:53:40;101425.69;;;9.39;100.00
18436;BME280;9346;52.006;4.720;2023-12-20T08:56:07;101432.03;;;9.40;100.00
18436;BME280;9346;52.006;4.720;2023-12-20T08:58:36;101429.88;;;9.42;100.00
18436;BME280;9346;52.006;4.720;2023-12-20T09:01:03;101431.28;;;9.44;100.00
18436;BME280;9346;52.006;4.720;2023-12-20T09:03:29;101424.94;;;9.44;100.00
18436;BME280;9346;52.006;4.720;2023-12-20T09:05:56;101421.44;;;9.48;100.00
18436;BME280;9346;52.006;4.720;2023-12-20T09:08:23;101427.78;;;9.49;100.00
18436;BME280;9346;52.006;4.720;2023-12-20T09:10:50;101422.03;;;9.50;100.00
18436;BME280;9346;52.006;4.720;2023-12-20T09:13:17;101428.94;;;9.53;100.00
18436;BME280;9346;52.006;4.720;2023-12-20T09:15:46;101422.94;;;9.56;100.00
18436;BME280;9346;52.006;4.720;2023-12-20T09:18:12;101416.31;;;9.57;100.00
18436;BME280;9346;52.006;4.720;2023-12-20T09:20:56;101409.25;;;9.61;100.00
18436;BME280;9346;52.006;4.720;2023-12-20T09:23:23;101407.06;;;9.63;100.00
18436;BME280;9346;52.006;4.720;2023-12-20T09:25:50;101408.75;;;9.64;100.00
18436;BME280;9346;52.006;4.720;2023-12-20T09:28:16;101417.06;;;9.69;100.00
18436;BME280;9346;52.006;4.720;2023-12-20T09:30:45;101411.56;;;9.69;100.00
18436;BME280;9346;52.006;4.720;2023-12-20T09:33:14;101411.56;;;9.69;100.00
18436;BME280;9346;52.006;4.720;2023-12-20T09:35:41;101418.19;;;9.73;100.00
18436;BME280;9346;52.006;4.720;2023-12-20T09:38:08;101425.94;;;9.76;100.00
18436;BME280;9346;52.006;4.720;2023-12-20T09:40:36;101424.88;;;9.77;100.00
18436;BME280;9346;52.006;4.720;2023-12-20T09:43:10;101424.69;;;9.83;100.00
18436;BME280;9346;52.006;4.720;2023-12-20T09:45:39;101421.69;;;9.85;100.00
18436;BME280;9346;52.006;4.720;2023-12-20T09:48:10;101425.06;;;9.92;100.00
18436;BME280;9346;52.006;4.720;2023-12-20T09:50:37;101432.50;;;9.91;100.00
18436;BME280;9346;52.006;4.720;2023-12-20T09:53:05;101437.50;;;9.94;100.00
18436;BME280;9346;52.006;4.720;2023-12-20T09:55:35;101447.66;;;9.94;100.00
18436;BME280;9346;52.006;4.720;2023-12-20T09:58:02;101449.31;;;9.95;100.00
18436;BME280;9346;52.006;4.720;2023-12-20T10:00:30;101452.66;;;9.97;100.00
18436;BME280;9346;52.006;4.720;2023-12-20T10:02:57;101440.56;;;9.98;100.00
18436;BME280;9346;52.006;4.720;2023-12-20T10:05:28;101437.03;;;10.02;100.00
18436;BME280;9346;52.006;4.720;2023-12-20T10:07:55;101433.78;;;10.05;100.00
18436;BME280;9346;52.006;4.720;2023-12-20T10:10:22;101436.31;;;10.07;100.00
18436;BME280;9346;52.006;4.720;2023-12-20T10:13:02;101438.53;;;10.10;100.00
18436;BME280;9346;52.006;4.720;2023-12-20T10:15:29;101433.59;;;10.12;100.00
18436;BME280;9346;52.006;4.720;2023-12-20T10:17:56;101432.53;;;10.13;100.00
18436;BME280;9346;52.006;4.720;2023-12-20T10:20:23;101435.28;;;10.13;100.00
18436;BME280;9346;52.006;4.720;2023-12-20T10:22:51;101435.84;;;10.15;100.00
18436;BME280;9346;52.006;4.720;2023-12-20T10:25:19;101432.28;;;10.14;100.00
18436;BME280;9346;52.006;4.720;2023-12-20T10:27:45;101428.44;;;10.15;100.00
18436;BME280;9346;52.006;4.720;2023-12-20T10:30:13;101430.91;;;10.17;100.00
18436;BME280;9346;52.006;4.720;2023-12-20T10:32:39;101427.06;;;10.18;100.00
18436;BME280;9346;52.006;4.720;2023-12-20T10:35:08;101416.63;;;10.20;100.00
18436;BME280;9346;52.006;4.720;2023-12-20T10:37:36;101421.63;;;10.23;100.00
18436;BME280;9346;52.006;4.720;2023-12-20T10:40:05;101422.22;;;10.25;100.00
18436;BME280;9346;52.006;4.720;2023-12-20T10:42:33;101423.63;;;10.27;100.00
18436;BME280;9346;52.006;4.720;2023-12-20T10:45:01;101416.16;;;10.28;100.00
18436;BME280;9346;52.006;4.720;2023-12-20T10:47:30;101409.84;;;10.27;100.00
18436;BME280;9346;52.006;4.720;2023-12-20T10:49:59;101398.59;;;10.29;100.00
18436;BME280;9346;52.006;4.720;2023-12-20T10:52:27;101404.63;;;10.31;100.00
18436;BME280;9346;52.006;4.720;2023-12-20T10:54:55;101401.63;;;10.32;100.00
18436;BME280;9346;52.006;4.720;2023-12-20T10:57:26;101402.47;;;10.33;100.00
18436;BME280;9346;52.006;4.720;2023-12-20T10:59:54;101401.38;;;10.34;100.00
18436;BME280;9346;52.006;4.720;2023-12-20T11:02:21;101392.84;;;10.35;100.00
18436;BME280;9346;52.006;4.720;2023-12-20T11:04:52;101401.94;;;10.36;100.00
18436;BME280;9346;52.006;4.720;2023-12-20T11:07:24;101380.50;;;10.38;100.00
18436;BME280;9346;52.006;4.720;2023-12-20T11:09:58;101382.16;;;10.39;100.00
18436;BME280;9346;52.006;4.720;2023-12-20T11:12:35;101378.31;;;10.40;100.00
18436;BME280;9346;52.006;4.720;2023-12-20T11:15:04;101376.44;;;10.45;100.00
18436;BME280;9346;52.006;4.720;2023-12-20T11:17:31;101370.38;;;10.43;100.00
18436;BME280;9346;52.006;4.720;2023-12-20T11:20:07;101373.94;;;10.44;100.00
18436;BME280;9346;52.006;4.720;2023-12-20T11:22:36;101366.50;;;10.44;100.00
18436;BME280;9346;52.006;4.720;2023-12-20T11:25:05;101366.50;;;10.44;100.00
18436;BME280;9346;52.006;4.720;2023-12-20T11:27:36;101373.41;;;10.47;100.00
18436;BME280;9346;52.006;4.720;2023-12-20T11:30:04;101380.34;;;10.49;100.00
18436;BME280;9346;52.006;4.720;2023-12-20T11:32:34;101380.91;;;10.51;100.00
18436;BME280;9346;52.006;4.720;2023-12-20T11:35:18;101370.47;;;10.53;100.00
18436;BME280;9346;52.006;4.720;2023-12-20T11:37:46;101372.38;;;10.53;100.00
18436;BME280;9346;52.006;4.720;2023-12-20T11:40:15;101355.59;;;10.54;100.00
18436;BME280;9346;52.006;4.720;2023-12-20T11:42:45;101355.31;;;10.56;100.00
18436;BME280;9346;52.006;4.720;2023-12-20T11:45:14;101355.91;;;10.58;100.00
18436;BME280;9346;52.006;4.720;2023-12-20T11:47:43;101349.28;;;10.59;100.00
18436;BME280;9346;52.006;4.720;2023-12-20T11:50:11;101350.69;;;10.61;100.00
18436;BME280;9346;52.006;4.720;2023-12-20T11:52:38;101348.19;;;10.60;100.00
18436;BME280;9346;52.006;4.720;2023-12-20T11:55:05;101347.66;;;10.63;100.00
18436;BME280;9346;52.006;4.720;2023-12-20T11:57:34;101354.03;;;10.63;100.00
18436;BME280;9346;52.006;4.720;2023-12-20T12:00:05;101349.88;;;10.61;100.00
18436;BME280;9346;52.006;4.720;2023-12-20T12:02:33;101350.69;;;10.61;100.00
18436;BME280;9346;52.006;4.720;2023-12-20T12:05:00;101345.19;;;10.61;100.00
18436;BME280;9346;52.006;4.720;2023-12-20T12:07:27;101347.16;;;10.66;100.00
18436;BME280;9346;52.006;4.720;2023-12-20T12:09:56;101352.66;;;10.66;100.00
18436;BME280;9346;52.006;4.720;2023-12-20T12:12:25;101350.75;;;10.66;100.00
18436;BME280;9346;52.006;4.720;2023-12-20T12:14:54;101357.09;;;10.67;100.00
18436;BME280;9346;52.006;4.720;2023-12-20T12:17:23;101339.47;;;10.68;100.00
18436;BME280;9346;52.006;4.720;2023-12-20T12:20:01;101335.34;;;10.70;100.00
18436;BME280;9346;52.006;4.720;2023-12-20T12:22:28;101335.34;;;10.70;100.00
18436;BME280;9346;52.006;4.720;2023-12-20T12:24:59;101333.44;;;10.71;100.00
18436;BME280;9346;52.006;4.720;2023-12-20T12:27:27;101328.47;;;10.73;100.00
18436;BME280;9346;52.006;4.720;2023-12-20T12:30:01;101328.47;;;10.73;100.00
18436;BME280;9346;52.006;4.720;2023-12-20T12:32:30;101318.88;;;10.75;100.00
18436;BME280;9346;52.006;4.720;2023-12-20T12:34:58;101315.28;;;10.75;100.00
18436;BME280;9346;52.006;4.720;2023-12-20T12:37:24;101304.81;;;10.77;100.00
18436;BME280;9346;52.006;4.720;2023-12-20T12:39:53;101305.63;;;10.77;100.00
18436;BME280;9346;52.006;4.720;2023-12-20T12:42:20;101304.00;;;10.76;100.00
18436;BME280;9346;52.006;4.720;2023-12-20T12:44:51;101311.16;;;10.77;100.00
18436;BME280;9346;52.006;4.720;2023-12-20T12:47:17;101294.34;;;10.79;100.00
18436;BME280;9346;52.006;4.720;2023-12-20T12:49:46;101287.25;;;10.83;100.00
18436;BME280;9346;52.006;4.720;2023-12-20T12:52:13;101292.44;;;10.79;100.00
18436;BME280;9346;52.006;4.720;2023-12-20T12:54:40;101288.28;;;10.77;100.00
18436;BME280;9346;52.006;4.720;2023-12-20T12:57:07;101288.03;;;10.78;100.00
18436;BME280;9346;52.006;4.720;2023-12-20T12:59:34;101292.19;;;10.81;100.00